sensor_id;sensor_type;location;lat;lon;timestamp;pressure;altitude;pressure_sealevel;temperature
78961;BMP280;68362;45.970;12.646;2023-11-21T00:00:14;100604.38;;;7.09
78961;BMP280;68362;45.970;12.646;2023-11-21T00:01:37;100611.47;;;7.15
78961;BMP280;68362;45.970;12.646;2023-11-21T00:02:39;100608.06;;;7.15
78961;BMP280;68362;45.970;12.646;2023-11-21T00:03:43;100603.41;;;7.10
78961;BMP280;68362;45.970;12.646;2023-11-21T00:04:45;100599.22;;;7.16
78961;BMP280;68362;45.970;12.646;2023-11-21T00:05:48;100608.25;;;7.13
78961;BMP280;68362;45.970;12.646;2023-11-21T00:06:51;100600.22;;;7.15
78961;BMP280;68362;45.970;12.646;2023-11-21T00:07:53;100602.25;;;7.19
78961;BMP280;68362;45.970;12.646;2023-11-21T00:08:56;100594.84;;;7.23
78961;BMP280;68362;45.970;12.646;2023-11-21T00:09:58;100595.44;;;7.18
78961;BMP280;68362;45.970;12.646;2023-11-21T00:11:00;100598.63;;;7.20
78961;BMP280;68362;45.970;12.646;2023-11-21T00:12:03;100599.00;;;7.17
78961;BMP280;68362;45.970;12.646;2023-11-21T00:13:06;100603.25;;;7.18
78961;BMP280;68362;45.970;12.646;2023-11-21T00:14:10;100600.44;;;7.13
78961;BMP280;68362;45.970;12.646;2023-11-21T00:15:12;100592.16;;;7.10
78961;BMP280;68362;45.970;12.646;2023-11-21T00:16:15;100597.81;;;7.13
78961;BMP280;68362;45.970;12.646;2023-11-21T00:17:17;100591.00;;;7.12
78961;BMP280;68362;45.970;12.646;2023-11-21T00:18:20;100583.94;;;7.06
78961;BMP280;68362;45.970;12.646;2023-11-21T00:19:22;100577.84;;;6.92
78961;BMP280;68362;45.970;12.646;2023-11-21T00:20:25;100579.03;;;6.90
78961;BMP280;68362;45.970;12.646;2023-11-21T00:21:27;100572.47;;;7.07
78961;BMP280;68362;45.970;12.646;2023-11-21T00:22:29;100570.47;;;7.09
78961;BMP280;68362;45.970;12.646;2023-11-21T00:23:31;100572.47;;;7.07
78961;BMP280;68362;45.970;12.646;2023-11-21T00:24:34;100567.19;;;6.94
78961;BMP280;68362;45.970;12.646;2023-11-21T00:25:36;100572.03;;;6.97
78961;BMP280;68362;45.970;12.646;2023-11-21T00:26:40;100574.09;;;7.08
78961;BMP280;68362;45.970;12.646;2023-11-21T00:27:42;100571.72;;;7.20
78961;BMP280;68362;45.970;12.646;2023-11-21T00:28:44;100572.53;;;7.20
78961;BMP280;68362;45.970;12.646;2023-11-21T00:29:47;100572.56;;;7.27
78961;BMP280;68362;45.970;12.646;2023-11-21T00:30:49;100574.16;;;7.28
78961;BMP280;68362;45.970;12.646;2023-11-21T00:31:51;100579.41;;;7.28
78961;BMP280;68362;45.970;12.646;2023-11-21T00:32:54;100573.00;;;7.31
78961;BMP280;68362;45.970;12.646;2023-11-21T00:33:56;100573.00;;;7.31
78961;BMP280;68362;45.970;12.646;2023-11-21T00:34:58;100573.38;;;7.34
78961;BMP280;68362;45.970;12.646;2023-11-21T00:36:01;100579.03;;;7.38
78961;BMP280;68362;45.970;12.646;2023-11-21T00:37:03;100574.00;;;7.36
78961;BMP280;68362;45.970;12.646;2023-11-21T00:38:05;100575.78;;;7.29
78961;BMP280;68362;45.970;12.646;2023-11-21T00:39:07;100569.34;;;7.32
78961;BMP280;68362;45.970;12.646;2023-11-21T00:40:11;100563.72;;;7.28
78961;BMP280;68362;45.970;12.646;2023-11-21T00:41:14;100562.94;;;7.28
78961;BMP280;68362;45.970;12.646;2023-11-21T00:42:16;100563.94;;;7.33
78961;BMP280;68362;45.970;12.646;2023-11-21T00:43:18;100559.53;;;7.27
78961;BMP280;68362;45.970;12.646;2023-11-21T00:44:20;100558.31;;;7.23
78961;BMP280;68362;45.970;12.646;2023-11-21T00:45:22;100556.53;;;7.30
78961;BMP280;68362;45.970;12.646;2023-11-21T00:46:24;100552.31;;;7.36
78961;BMP280;68362;45.970;12.646;2023-11-21T00:47:29;100558.97;;;7.45
78961;BMP280;68362;45.970;12.646;2023-11-21T00:48:31;100548.53;;;7.45
78961;BMP280;68362;45.970;12.646;2023-11-21T00:49:33;100554.53;;;7.39
78961;BMP280;68362;45.970;12.646;2023-11-21T00:50:35;100549.31;;;7.39
78961;BMP280;68362;45.970;12.646;2023-11-21T00:51:37;100545.88;;;7.38
78961;BMP280;68362;45.970;12.646;2023-11-21T00:52:39;100549.31;;;7.39
78961;BMP280;68362;45.970;12.646;2023-11-21T00:53:42;100544.03;;;7.32
78961;BMP280;68362;45.970;12.646;2023-11-21T00:54:44;100550.06;;;7.26
78961;BMP280;68362;45.970;12.646;2023-11-21T00:55:46;100548.88;;;7.22
78961;BMP280;68362;45.970;12.646;2023-11-21T00:56:49;100549.03;;;7.14
78961;BMP280;68362;45.970;12.646;2023-11-21T00:57:51;100547.81;;;7.16
78961;BMP280;68362;45.970;12.646;2023-11-21T00:58:54;100551.44;;;7.15
78961;BMP280;68362;45.970;12.646;2023-11-21T00:59:56;100554.84;;;7.16
78961;BMP280;68362;45.970;12.646;2023-11-21T01:00:58;100548.63;;;7.23
78961;BMP280;68362;45.970;12.646;2023-11-21T01:02:00;100548.25;;;7.20
78961;BMP280;68362;45.970;12.646;2023-11-21T01:03:03;100547.84;;;7.23
78961;BMP280;68362;45.970;12.646;2023-11-21T01:04:06;100541.59;;;7.17
78961;BMP280;68362;45.970;12.646;2023-11-21T01:05:11;100534.00;;;7.22
78961;BMP280;68362;45.970;12.646;2023-11-21T01:06:13;100528.78;;;7.22
78961;BMP280;68362;45.970;12.646;2023-11-21T01:07:17;100523.94;;;7.13
78961;BMP280;68362;45.970;12.646;2023-11-21T01:08:22;100513.84;;;7.03
78961;BMP280;68362;45.970;12.646;2023-11-21T01:09:26;100516.09;;;7.06
78961;BMP280;68362;45.970;12.646;2023-11-21T01:10:28;100508.84;;;7.08
78961;BMP280;68362;45.970;12.646;2023-11-21T01:11:30;100511.25;;;7.03
78961;BMP280;68362;45.970;12.646;2023-11-21T01:12:37;100505.81;;;6.98
78961;BMP280;68362;45.970;12.646;2023-11-21T01:13:40;100500.63;;;7.05
78961;BMP280;68362;45.970;12.646;2023-11-21T01:14:43;100498.59;;;7.00
78961;BMP280;68362;45.970;12.646;2023-11-21T01:15:46;100498.78;;;6.92
78961;BMP280;68362;45.970;12.646;2023-11-21T01:16:48;100496.34;;;6.84
78961;BMP280;68362;45.970;12.646;2023-11-21T01:17:51;100494.69;;;6.76
78961;BMP280;68362;45.970;12.646;2023-11-21T01:18:53;100491.13;;;6.77
78961;BMP280;68362;45.970;12.646;2023-11-21T01:19:56;100481.34;;;6.99
78961;BMP280;68362;45.970;12.646;2023-11-21T01:20:58;100481.16;;;7.07
78961;BMP280;68362;45.970;12.646;2023-11-21T01:22:02;100468.94;;;7.14
78961;BMP280;68362;45.970;12.646;2023-11-21T01:23:04;100472.13;;;7.03
78961;BMP280;68362;45.970;12.646;2023-11-21T01:24:06;100476.09;;;6.92
78961;BMP280;68362;45.970;12.646;2023-11-21T01:25:09;100477.53;;;7.08
78961;BMP280;68362;45.970;12.646;2023-11-21T01:26:12;100476.56;;;7.16
78961;BMP280;68362;45.970;12.646;2023-11-21T01:27:15;100475.16;;;7.27
78961;BMP280;68362;45.970;12.646;2023-11-21T01:28:17;100472.59;;;7.33
78961;BMP280;68362;45.970;12.646;2023-11-21T01:29:19;100469.56;;;7.30
78961;BMP280;68362;45.970;12.646;2023-11-21T01:30:22;100468.56;;;7.24
78961;BMP280;68362;45.970;12.646;2023-11-21T01:31:24;100475.72;;;7.09
78961;BMP280;68362;45.970;12.646;2023-11-21T01:32:29;100477.91;;;6.92
78961;BMP280;68362;45.970;12.646;2023-11-21T01:33:31;100484.00;;;6.64
78961;BMP280;68362;45.970;12.646;2023-11-21T01:34:33;100473.91;;;6.48
78961;BMP280;68362;45.970;12.646;2023-11-21T01:35:36;100481.53;;;6.43
78961;BMP280;68362;45.970;12.646;2023-11-21T01:36:38;100473.56;;;6.64
78961;BMP280;68362;45.970;12.646;2023-11-21T01:37:40;100459.38;;;6.73
78961;BMP280;68362;45.970;12.646;2023-11-21T01:38:42;100463.81;;;6.80
78961;BMP280;68362;45.970;12.646;2023-11-21T01:39:44;100457.97;;;6.71
78961;BMP280;68362;45.970;12.646;2023-11-21T01:40:47;100456.75;;;6.67
78961;BMP280;68362;45.970;12.646;2023-11-21T01:41:50;100453.53;;;6.65
78961;BMP280;68362;45.970;12.646;2023-11-21T01:42:53;100455.53;;;6.63
78961;BMP280;68362;45.970;12.646;2023-11-21T01:43:56;100464.41;;;6.75
78961;BMP280;68362;45.970;12.646;2023-11-21T01:44:58;100459.56;;;6.72
78961;BMP280;68362;45.970;12.646;2023-11-21T01:46:01;100467.28;;;6.87
78961;BMP280;68362;45.970;12.646;2023-11-21T01:47:03;100459.66;;;6.92
78961;BMP280;68362;45.970;12.646;2023-11-21T01:48:07;100459.06;;;6.96
78961;BMP280;68362;45.970;12.646;2023-11-21T01:49:10;100460.69;;;7.04
78961;BMP280;68362;45.970;12.646;2023-11-21T01:50:16;100452.81;;;6.91
78961;BMP280;68362;45.970;12.646;2023-11-21T01:51:19;100449.72;;;6.67
78961;BMP280;68362;45.970;12.646;2023-11-21T01:52:22;100443.88;;;6.59
78961;BMP280;68362;45.970;12.646;2023-11-21T01:53:25;100445.50;;;6.60
78961;BMP280;68362;45.970;12.646;2023-11-21T01:54:28;100437.06;;;6.58
78961;BMP280;68362;45.970;12.646;2023-11-21T01:55:33;100440.84;;;6.55
78961;BMP280;68362;45.970;12.646;2023-11-21T01:56:36;100435.88;;;6.60
78961;BMP280;68362;45.970;12.646;2023-11-21T01:57:38;100441.31;;;6.65
78961;BMP280;68362;45.970;12.646;2023-11-21T01:58:41;100435.47;;;6.63
78961;BMP280;68362;45.970;12.646;2023-11-21T01:59:43;100437.13;;;6.71
78961;BMP280;68362;45.970;12.646;2023-11-21T02:00:46;100446.78;;;6.84
78961;BMP280;68362;45.970;12.646;2023-11-21T02:01:51;100440.38;;;6.93
78961;BMP280;68362;45.970;12.646;2023-11-21T02:02:53;100440.22;;;7.01
78961;BMP280;68362;45.970;12.646;2023-11-21T02:03:55;100441.59;;;6.97
78961;BMP280;68362;45.970;12.646;2023-11-21T02:04:58;100448.00;;;6.88
78961;BMP280;68362;45.970;12.646;2023-11-21T02:06:01;100443.56;;;6.82
78961;BMP280;68362;45.970;12.646;2023-11-21T02:07:03;100438.50;;;6.73
78961;BMP280;68362;45.970;12.646;2023-11-21T02:08:08;100442.53;;;6.83
78961;BMP280;68362;45.970;12.646;2023-11-21T02:09:11;100442.00;;;6.94
78961;BMP280;68362;45.970;12.646;2023-11-21T02:10:17;100440.41;;;7.06
78961;BMP280;68362;45.970;12.646;2023-11-21T02:11:24;100441.25;;;7.13
78961;BMP280;68362;45.970;12.646;2023-11-21T02:12:29;100435.63;;;7.16
78961;BMP280;68362;45.970;12.646;2023-11-21T02:13:31;100440.63;;;7.18
78961;BMP280;68362;45.970;12.646;2023-11-21T02:14:34;100437.84;;;7.19
78961;BMP280;68362;45.970;12.646;2023-11-21T02:15:37;100443.84;;;7.13
78961;BMP280;68362;45.970;12.646;2023-11-21T02:16:40;100448.44;;;7.18
78961;BMP280;68362;45.970;12.646;2023-11-21T02:17:43;100447.84;;;7.16
78961;BMP280;68362;45.970;12.646;2023-11-21T02:18:54;100461.69;;;7.03
78961;BMP280;68362;45.970;12.646;2023-11-21T02:19:56;100452.78;;;6.78
78961;BMP280;68362;45.970;12.646;2023-11-21T02:20:58;100460.75;;;6.63
78961;BMP280;68362;45.970;12.646;2023-11-21T02:22:01;100453.13;;;6.68
78961;BMP280;68362;45.970;12.646;2023-11-21T02:23:06;100455.59;;;6.83
78961;BMP280;68362;45.970;12.646;2023-11-21T02:24:09;100454.06;;;6.95
78961;BMP280;68362;45.970;12.646;2023-11-21T02:25:11;100451.03;;;6.98
78961;BMP280;68362;45.970;12.646;2023-11-21T02:26:14;100449.63;;;7.02
78961;BMP280;68362;45.970;12.646;2023-11-21T02:27:16;100451.25;;;7.03
78961;BMP280;68362;45.970;12.646;2023-11-21T02:28:23;100451.63;;;7.00
78961;BMP280;68362;45.970;12.646;2023-11-21T02:29:28;100445.59;;;6.93
78961;BMP280;68362;45.970;12.646;2023-11-21T02:30:30;100441.75;;;6.76
78961;BMP280;68362;45.970;12.646;2023-11-21T02:31:34;100446.31;;;6.60
78961;BMP280;68362;45.970;12.646;2023-11-21T02:32:36;100451.06;;;6.50
78961;BMP280;68362;45.970;12.646;2023-11-21T02:33:50;100442.78;;;6.33
78961;BMP280;68362;45.970;12.646;2023-11-21T02:34:52;100449.44;;;6.42
78961;BMP280;68362;45.970;12.646;2023-11-21T02:35:57;100445.41;;;6.40
78961;BMP280;68362;45.970;12.646;2023-11-21T02:37:00;100442.59;;;6.35
78961;BMP280;68362;45.970;12.646;2023-11-21T02:38:02;100440.97;;;6.34
78961;BMP280;68362;45.970;12.646;2023-11-21T02:39:05;100443.75;;;6.26
78961;BMP280;68362;45.970;12.646;2023-11-21T02:40:10;100444.34;;;6.28
78961;BMP280;68362;45.970;12.646;2023-11-21T02:41:13;100443.16;;;6.30
78961;BMP280;68362;45.970;12.646;2023-11-21T02:42:16;100437.38;;;6.41
78961;BMP280;68362;45.970;12.646;2023-11-21T02:43:18;100437.44;;;6.48
78961;BMP280;68362;45.970;12.646;2023-11-21T02:44:20;100439.25;;;6.54
78961;BMP280;68362;45.970;12.646;2023-11-21T02:45:22;100435.25;;;6.58
78961;BMP280;68362;45.970;12.646;2023-11-21T02:46:26;100432.16;;;6.41
78961;BMP280;68362;45.970;12.646;2023-11-21T02:47:29;100431.13;;;6.36
78961;BMP280;68362;45.970;12.646;2023-11-21T02:48:31;100436.16;;;6.31
78961;BMP280;68362;45.970;12.646;2023-11-21T02:49:33;100433.72;;;6.36
78961;BMP280;68362;45.970;12.646;2023-11-21T02:50:37;100438.75;;;6.31
78961;BMP280;68362;45.970;12.646;2023-11-21T02:51:40;100432.38;;;6.40
78961;BMP280;68362;45.970;12.646;2023-11-21T02:52:42;100435.38;;;6.37
78961;BMP280;68362;45.970;12.646;2023-11-21T02:53:44;100430.00;;;6.45
78961;BMP280;68362;45.970;12.646;2023-11-21T02:54:46;100422.22;;;6.58
78961;BMP280;68362;45.970;12.646;2023-11-21T02:55:48;100430.84;;;6.52
78961;BMP280;68362;45.970;12.646;2023-11-21T02:56:50;100430.44;;;6.55
78961;BMP280;68362;45.970;12.646;2023-11-21T02:57:53;100423.41;;;6.49
78961;BMP280;68362;45.970;12.646;2023-11-21T02:58:59;100429.22;;;6.51
78961;BMP280;68362;45.970;12.646;2023-11-21T03:00:02;100427.00;;;6.48
78961;BMP280;68362;45.970;12.646;2023-11-21T03:01:05;100427.59;;;6.50
78961;BMP280;68362;45.970;12.646;2023-11-21T03:02:09;100421.72;;;6.35
78961;BMP280;68362;45.970;12.646;2023-11-21T03:03:11;100423.75;;;6.39
78961;BMP280;68362;45.970;12.646;2023-11-21T03:04:14;100426.81;;;6.50
78961;BMP280;68362;45.970;12.646;2023-11-21T03:05:19;100422.97;;;6.45
78961;BMP280;68362;45.970;12.646;2023-11-21T03:06:23;100428.22;;;6.52
78961;BMP280;68362;45.970;12.646;2023-11-21T03:07:25;100425.38;;;6.47
78961;BMP280;68362;45.970;12.646;2023-11-21T03:08:28;100426.53;;;6.38
78961;BMP280;68362;45.970;12.646;2023-11-21T03:09:29;100436.31;;;6.29
78961;BMP280;68362;45.970;12.646;2023-11-21T03:10:31;100435.38;;;6.37
78961;BMP280;68362;45.970;12.646;2023-11-21T03:11:34;100430.31;;;6.29
78961;BMP280;68362;45.970;12.646;2023-11-21T03:12:40;100432.78;;;6.43
78961;BMP280;68362;45.970;12.646;2023-11-21T03:13:42;100438.81;;;6.44
78961;BMP280;68362;45.970;12.646;2023-11-21T03:14:44;100434.25;;;6.53
78961;BMP280;68362;45.970;12.646;2023-11-21T03:15:46;100433.50;;;6.65
78961;BMP280;68362;45.970;12.646;2023-11-21T03:16:49;100429.88;;;6.73
78961;BMP280;68362;45.970;12.646;2023-11-21T03:17:51;100430.31;;;6.77
78961;BMP280;68362;45.970;12.646;2023-11-21T03:18:54;100430.28;;;6.70
78961;BMP280;68362;45.970;12.646;2023-11-21T03:19:56;100430.50;;;6.68
78961;BMP280;68362;45.970;12.646;2023-11-21T03:20:59;100428.50;;;6.70
78961;BMP280;68362;45.970;12.646;2023-11-21T03:22:01;100431.94;;;6.84
78961;BMP280;68362;45.970;12.646;2023-11-21T03:23:03;100424.91;;;6.91
78961;BMP280;68362;45.970;12.646;2023-11-21T03:24:07;100425.75;;;6.92
78961;BMP280;68362;45.970;12.646;2023-11-21T03:25:09;100430.75;;;6.87
78961;BMP280;68362;45.970;12.646;2023-11-21T03:26:14;100425.13;;;6.90
78961;BMP280;68362;45.970;12.646;2023-11-21T03:27:16;100431.56;;;6.94
78961;BMP280;68362;45.970;12.646;2023-11-21T03:28:18;100430.13;;;6.78
78961;BMP280;68362;45.970;12.646;2023-11-21T03:29:21;100436.34;;;6.77
78961;BMP280;68362;45.970;12.646;2023-11-21T03:30:23;100432.47;;;6.66
78961;BMP280;68362;45.970;12.646;2023-11-21T03:31:25;100435.13;;;6.80
78961;BMP280;68362;45.970;12.646;2023-11-21T03:32:28;100422.75;;;6.95
78961;BMP280;68362;45.970;12.646;2023-11-21T03:33:31;100425.16;;;7.03
78961;BMP280;68362;45.970;12.646;2023-11-21T03:34:33;100416.53;;;7.09
78961;BMP280;68362;45.970;12.646;2023-11-21T03:35:35;100422.38;;;7.05
78961;BMP280;68362;45.970;12.646;2023-11-21T03:36:37;100422.94;;;7.07
78961;BMP280;68362;45.970;12.646;2023-11-21T03:37:39;100414.31;;;7.06
78961;BMP280;68362;45.970;12.646;2023-11-21T03:38:43;100410.31;;;7.04
78961;BMP280;68362;45.970;12.646;2023-11-21T03:39:46;100413.09;;;7.09
78961;BMP280;68362;45.970;12.646;2023-11-21T03:40:49;100408.34;;;7.12
78961;BMP280;68362;45.970;12.646;2023-11-21T03:41:52;100409.94;;;7.13
78961;BMP280;68362;45.970;12.646;2023-11-21T03:42:54;100407.72;;;7.10
78961;BMP280;68362;45.970;12.646;2023-11-21T03:43:57;100407.50;;;7.05
78961;BMP280;68362;45.970;12.646;2023-11-21T03:44:59;100404.28;;;7.03
78961;BMP280;68362;45.970;12.646;2023-11-21T03:46:01;100405.28;;;7.02
78961;BMP280;68362;45.970;12.646;2023-11-21T03:47:04;100404.28;;;7.03
78961;BMP280;68362;45.970;12.646;2023-11-21T03:48:07;100401.88;;;6.95
78961;BMP280;68362;45.970;12.646;2023-11-21T03:49:11;100403.47;;;6.96
78961;BMP280;68362;45.970;12.646;2023-11-21T03:50:16;100398.09;;;7.04
78961;BMP280;68362;45.970;12.646;2023-11-21T03:51:18;100392.00;;;6.90
78961;BMP280;68362;45.970;12.646;2023-11-21T03:52:20;100397.41;;;6.82
78961;BMP280;68362;45.970;12.646;2023-11-21T03:53:22;100388.78;;;6.75
78961;BMP280;68362;45.970;12.646;2023-11-21T03:54:25;100396.59;;;6.68
78961;BMP280;68362;45.970;12.646;2023-11-21T03:55:27;100391.56;;;6.73
78961;BMP280;68362;45.970;12.646;2023-11-21T03:56:29;100386.19;;;6.68
78961;BMP280;68362;45.970;12.646;2023-11-21T03:57:31;100391.38;;;6.68
78961;BMP280;68362;45.970;12.646;2023-11-21T03:58:34;100388.94;;;6.60
78961;BMP280;68362;45.970;12.646;2023-11-21T03:59:36;100393.75;;;6.63
78961;BMP280;68362;45.970;12.646;2023-11-21T04:00:41;100397.97;;;6.64
78961;BMP280;68362;45.970;12.646;2023-11-21T04:01:43;100394.63;;;6.84
78961;BMP280;68362;45.970;12.646;2023-11-21T04:02:46;100403.06;;;6.99
78961;BMP280;68362;45.970;12.646;2023-11-21T04:03:51;100403.91;;;7.06
78961;BMP280;68362;45.970;12.646;2023-11-21T04:04:53;100402.50;;;7.10
78961;BMP280;68362;45.970;12.646;2023-11-21T04:05:55;100405.91;;;7.04
78961;BMP280;68362;45.970;12.646;2023-11-21T04:06:58;100402.50;;;7.10
78961;BMP280;68362;45.970;12.646;2023-11-21T04:08:00;100407.91;;;7.15
78961;BMP280;68362;45.970;12.646;2023-11-21T04:09:02;100398.69;;;7.19
78961;BMP280;68362;45.970;12.646;2023-11-21T04:10:07;100405.72;;;7.19
78961;BMP280;68362;45.970;12.646;2023-11-21T04:11:12;100406.31;;;7.21
78961;BMP280;68362;45.970;12.646;2023-11-21T04:12:14;100404.72;;;7.20
78961;BMP280;68362;45.970;12.646;2023-11-21T04:13:16;100412.75;;;7.18
78961;BMP280;68362;45.970;12.646;2023-11-21T04:14:18;100414.53;;;7.18
78961;BMP280;68362;45.970;12.646;2023-11-21T04:15:21;100415.34;;;7.18
78961;BMP280;68362;45.970;12.646;2023-11-21T04:16:23;100410.72;;;7.20
78961;BMP280;68362;45.970;12.646;2023-11-21T04:17:25;100413.53;;;7.06
78961;BMP280;68362;45.970;12.646;2023-11-21T04:18:27;100410.66;;;6.81
78961;BMP280;68362;45.970;12.646;2023-11-21T04:19:30;100419.22;;;6.61
78961;BMP280;68362;45.970;12.646;2023-11-21T04:20:32;100408.19;;;6.59
78961;BMP280;68362;45.970;12.646;2023-11-21T04:21:34;100409.44;;;6.77
78961;BMP280;68362;45.970;12.646;2023-11-21T04:22:40;100404.66;;;6.87
78961;BMP280;68362;45.970;12.646;2023-11-21T04:23:48;100409.47;;;6.90
78961;BMP280;68362;45.970;12.646;2023-11-21T04:24:50;100412.91;;;6.97
78961;BMP280;68362;45.970;12.646;2023-11-21T04:25:52;100401.88;;;6.95
78961;BMP280;68362;45.970;12.646;2023-11-21T04:26:56;100409.88;;;6.87
78961;BMP280;68362;45.970;12.646;2023-11-21T04:27:58;100404.03;;;6.85
78961;BMP280;68362;45.970;12.646;2023-11-21T04:29:00;100409.81;;;6.60
78961;BMP280;68362;45.970;12.646;2023-11-21T04:30:03;100403.81;;;6.66
78961;BMP280;68362;45.970;12.646;2023-11-21T04:31:05;100406.19;;;6.68
78961;BMP280;68362;45.970;12.646;2023-11-21T04:32:09;100406.41;;;6.66
78961;BMP280;68362;45.970;12.646;2023-11-21T04:33:11;100395.97;;;6.60
78961;BMP280;68362;45.970;12.646;2023-11-21T04:34:13;100398.38;;;6.68
78961;BMP280;68362;45.970;12.646;2023-11-21T04:35:16;100389.41;;;6.77
78961;BMP280;68362;45.970;12.646;2023-11-21T04:36:18;100391.00;;;6.85
78961;BMP280;68362;45.970;12.646;2023-11-21T04:37:21;100388.59;;;6.90
78961;BMP280;68362;45.970;12.646;2023-11-21T04:38:24;100388.22;;;6.93
78961;BMP280;68362;45.970;12.646;2023-11-21T04:39:26;100392.03;;;6.97
78961;BMP280;68362;45.970;12.646;2023-11-21T04:40:29;100388.19;;;6.80
78961;BMP280;68362;45.970;12.646;2023-11-21T04:41:31;100389.97;;;6.72
78961;BMP280;68362;45.970;12.646;2023-11-21T04:42:34;100388.19;;;6.80
78961;BMP280;68362;45.970;12.646;2023-11-21T04:43:37;100381.34;;;6.65
78961;BMP280;68362;45.970;12.646;2023-11-21T04:44:40;100391.34;;;6.62
78961;BMP280;68362;45.970;12.646;2023-11-21T04:45:42;100378.13;;;6.63
78961;BMP280;68362;45.970;12.646;2023-11-21T04:46:45;100372.50;;;6.73
78961;BMP280;68362;45.970;12.646;2023-11-21T04:47:47;100383.75;;;6.73
78961;BMP280;68362;45.970;12.646;2023-11-21T04:48:50;100379.34;;;6.74
78961;BMP280;68362;45.970;12.646;2023-11-21T04:49:52;100382.78;;;6.75
78961;BMP280;68362;45.970;12.646;2023-11-21T04:50:54;100382.56;;;6.76
78961;BMP280;68362;45.970;12.646;2023-11-21T04:51:56;100383.19;;;6.85
78961;BMP280;68362;45.970;12.646;2023-11-21T04:52:58;100379.72;;;6.64
78961;BMP280;68362;45.970;12.646;2023-11-21T04:54:00;100384.28;;;6.49
78961;BMP280;68362;45.970;12.646;2023-11-21T04:55:02;100387.84;;;6.35
78961;BMP280;68362;45.970;12.646;2023-11-21T04:56:05;100380.63;;;6.30
78961;BMP280;68362;45.970;12.646;2023-11-21T04:57:07;100384.03;;;6.31
78961;BMP280;68362;45.970;12.646;2023-11-21T04:58:10;100386.81;;;6.29
78961;BMP280;68362;45.970;12.646;2023-11-21T04:59:13;100379.19;;;6.28
78961;BMP280;68362;45.970;12.646;2023-11-21T05:00:15;100392.47;;;6.39
78961;BMP280;68362;45.970;12.646;2023-11-21T05:01:18;100384.50;;;6.54
78961;BMP280;68362;45.970;12.646;2023-11-21T05:02:20;100386.31;;;6.54
78961;BMP280;68362;45.970;12.646;2023-11-21T05:03:36;100374.03;;;6.41
78961;BMP280;68362;45.970;12.646;2023-11-21T05:04:40;100383.81;;;6.32
78961;BMP280;68362;45.970;12.646;2023-11-21T05:05:45;100383.03;;;6.32
78961;BMP280;68362;45.970;12.646;2023-11-21T05:06:47;100385.72;;;6.52
78961;BMP280;68362;45.970;12.646;2023-11-21T05:07:49;100377.72;;;6.60
78961;BMP280;68362;45.970;12.646;2023-11-21T05:08:51;100380.97;;;6.68
78961;BMP280;68362;45.970;12.646;2023-11-21T05:09:55;100378.16;;;6.77
78961;BMP280;68362;45.970;12.646;2023-11-21T05:10:57;100382.78;;;6.81
78961;BMP280;68362;45.970;12.646;2023-11-21T05:11:59;100382.16;;;6.86
78961;BMP280;68362;45.970;12.646;2023-11-21T05:13:01;100383.81;;;6.80
78961;BMP280;68362;45.970;12.646;2023-11-21T05:14:04;100381.56;;;6.70
78961;BMP280;68362;45.970;12.646;2023-11-21T05:15:08;100381.75;;;6.76
78961;BMP280;68362;45.970;12.646;2023-11-21T05:16:13;100383.75;;;6.73
78961;BMP280;68362;45.970;12.646;2023-11-21T05:17:16;100377.53;;;6.61
78961;BMP280;68362;45.970;12.646;2023-11-21T05:18:18;100380.50;;;6.58
78961;BMP280;68362;45.970;12.646;2023-11-21T05:19:20;100380.03;;;6.35
78961;BMP280;68362;45.970;12.646;2023-11-21T05:20:22;100386.16;;;6.14
78961;BMP280;68362;45.970;12.646;2023-11-21T05:21:26;100387.09;;;6.06
78961;BMP280;68362;45.970;12.646;2023-11-21T05:22:28;100384.75;;;6.18
78961;BMP280;68362;45.970;12.646;2023-11-21T05:23:30;100381.41;;;6.31
78961;BMP280;68362;45.970;12.646;2023-11-21T05:24:32;100384.28;;;6.42
78961;BMP280;68362;45.970;12.646;2023-11-21T05:25:34;100384.47;;;6.47
78961;BMP280;68362;45.970;12.646;2023-11-21T05:26:41;100374.50;;;6.58
78961;BMP280;68362;45.970;12.646;2023-11-21T05:27:45;100379.28;;;6.54
78961;BMP280;68362;45.970;12.646;2023-11-21T05:28:47;100380.47;;;6.45
78961;BMP280;68362;45.970;12.646;2023-11-21T05:29:49;100375.84;;;6.40
78961;BMP280;68362;45.970;12.646;2023-11-21T05:30:52;100375.59;;;6.35
78961;BMP280;68362;45.970;12.646;2023-11-21T05:32:14;100369.63;;;6.35
78961;BMP280;68362;45.970;12.646;2023-11-21T05:33:16;100380.88;;;6.55
78961;BMP280;68362;45.970;12.646;2023-11-21T05:34:19;100375.75;;;6.68
78961;BMP280;68362;45.970;12.646;2023-11-21T05:35:22;100372.75;;;6.78
78961;BMP280;68362;45.970;12.646;2023-11-21T05:36:24;100371.75;;;6.86
78961;BMP280;68362;45.970;12.646;2023-11-21T05:37:27;100370.97;;;6.92
78961;BMP280;68362;45.970;12.646;2023-11-21T05:38:29;100373.19;;;6.95
78961;BMP280;68362;45.970;12.646;2023-11-21T05:39:31;100372.19;;;6.96
78961;BMP280;68362;45.970;12.646;2023-11-21T05:40:33;100369.53;;;6.76
78961;BMP280;68362;45.970;12.646;2023-11-21T05:41:35;100366.91;;;6.69
78961;BMP280;68362;45.970;12.646;2023-11-21T05:42:38;100366.06;;;6.56
78961;BMP280;68362;45.970;12.646;2023-11-21T05:43:41;100360.75;;;6.36
78961;BMP280;68362;45.970;12.646;2023-11-21T05:44:43;100364.34;;;6.21
78961;BMP280;68362;45.970;12.646;2023-11-21T05:45:46;100358.75;;;6.25
78961;BMP280;68362;45.970;12.646;2023-11-21T05:46:48;100358.59;;;6.39
78961;BMP280;68362;45.970;12.646;2023-11-21T05:47:50;100356.03;;;6.53
78961;BMP280;68362;45.970;12.646;2023-11-21T05:48:53;100360.03;;;6.55
78961;BMP280;68362;45.970;12.646;2023-11-21T05:49:55;100360.47;;;6.65
78961;BMP280;68362;45.970;12.646;2023-11-21T05:50:57;100360.47;;;6.72
78961;BMP280;68362;45.970;12.646;2023-11-21T05:51:59;100371.31;;;6.82
78961;BMP280;68362;45.970;12.646;2023-11-21T05:53:04;100363.13;;;6.85
78961;BMP280;68362;45.970;12.646;2023-11-21T05:54:06;100368.53;;;6.84
78961;BMP280;68362;45.970;12.646;2023-11-21T05:55:10;100367.75;;;6.90
78961;BMP280;68362;45.970;12.646;2023-11-21T05:56:12;100369.34;;;6.78
78961;BMP280;68362;45.970;12.646;2023-11-21T05:57:15;100370.16;;;6.71